Time;durP1;ratioP1;P1;durP2;ratioP2;P2;SDS_P1;SDS_P2;PMS_P1;PMS_P2;Temp;Humidity;BMP_temperature;BMP_pressure;BME280_temperature;BME280_humidity;BME280_pressure;Samples;Min_cycle;Max_cycle;Signal;HPM_P1;HPM_P2
2023/08/18 00:00:40;;;;;;;7.85;3.70;;;;;;;22.31;62.47;100916.23;1629292;86;21051;-61
2023/08/18 00:03:10;;;;;;;4.62;3.70;;;;;;;22.29;62.60;100906.72;1629386;86;21091;-61
2023/08/18 00:05:39;;;;;;;5.40;3.47;;;;;;;22.27;62.73;100910.88;1629630;86;21061;-60
2023/08/18 00:08:08;;;;;;;5.15;3.60;;;;;;;22.23;62.92;100903.59;1629329;88;21518;-60
2023/08/18 00:10:37;;;;;;;9.55;4.00;;;;;;;22.19;63.05;100898.79;1645714;83;21014;-65
2023/08/18 00:13:05;;;;;;;6.85;3.47;;;;;;;22.15;63.18;100895.68;1718117;83;21012;-61
2023/08/18 00:15:34;;;;;;;3.87;3.12;;;;;;;22.12;63.34;100896.20;1718365;83;20986;-60
2023/08/18 00:18:04;;;;;;;6.65;3.72;;;;;;;22.13;63.38;100899.28;1718303;83;21011;-61
2023/08/18 00:20:33;;;;;;;5.75;3.72;;;;;;;22.12;63.43;100897.05;1718284;83;21027;-61
2023/08/18 00:23:03;;;;;;;7.42;3.62;;;;;;;22.08;63.62;100895.86;1718228;83;21058;-61
2023/08/18 00:25:32;;;;;;;4.40;3.33;;;;;;;22.06;63.73;100898.62;1718258;83;21050;-60
2023/08/18 00:28:02;;;;;;;6.83;3.72;;;;;;;22.04;63.92;100892.45;1718128;83;21061;-60
2023/08/18 00:30:32;;;;;;;4.40;3.70;;;;;;;21.97;64.16;100895.41;1718308;83;21051;-59
2023/08/18 00:33:01;;;;;;;7.53;4.00;;;;;;;21.93;64.44;100894.80;1718254;83;21046;-60
2023/08/18 00:35:32;;;;;;;9.58;4.37;;;;;;;21.91;64.63;100897.02;1713681;83;21034;-61
2023/08/18 00:38:00;;;;;;;8.88;4.58;;;;;;;21.89;64.79;100895.03;1718038;83;21094;-61
2023/08/18 00:40:30;;;;;;;6.30;4.40;;;;;;;21.86;64.90;100886.63;1717964;83;21050;-61
2023/08/18 00:43:00;;;;;;;6.70;4.10;;;;;;;21.83;64.98;100892.19;1717901;83;21038;-61
2023/08/18 00:45:29;;;;;;;8.75;4.00;;;;;;;21.80;64.97;100890.47;1713346;83;21050;-60
2023/08/18 00:47:59;;;;;;;8.48;4.20;;;;;;;21.75;65.07;100886.22;1718190;83;21430;-61
2023/08/18 00:50:27;;;;;;;7.97;4.30;;;;;;;21.74;65.20;100888.72;1718002;82;21466;-60
2023/08/18 00:52:58;;;;;;;7.22;3.87;;;;;;;21.74;65.30;100892.90;1718232;83;21499;-61
2023/08/18 00:55:28;;;;;;;4.62;3.33;;;;;;;21.72;65.42;100880.61;1718105;83;21035;-60
2023/08/18 00:57:56;;;;;;;6.30;3.20;;;;;;;21.70;65.56;100887.00;1713218;83;21462;-61
2023/08/18 01:00:26;;;;;;;4.05;3.50;;;;;;;21.68;65.70;100889.75;1717977;83;21018;-60
2023/08/18 01:02:55;;;;;;;5.33;3.62;;;;;;;21.65;65.81;100887.48;1718104;83;21034;-60
2023/08/18 01:05:25;;;;;;;5.50;3.72;;;;;;;21.61;65.97;100894.13;1718122;83;21019;-60
2023/08/18 01:07:54;;;;;;;8.20;3.58;;;;;;;21.58;66.19;100893.80;1717853;83;21430;-60
2023/08/18 01:10:24;;;;;;;7.78;3.50;;;;;;;21.55;66.27;100894.33;1718141;83;21077;-61
2023/08/18 01:13:04;;;;;;;8.25;3.37;;;;;;;21.48;66.39;100887.54;1718104;83;21068;-61
2023/08/18 01:15:40;;;;;;;7.37;3.72;;;;;;;21.46;66.54;100893.38;1717564;83;21070;-61
2023/08/18 01:18:09;;;;;;;7.10;3.87;;;;;;;21.49;66.57;100888.67;1718095;83;21022;-61
2023/08/18 01:20:38;;;;;;;5.60;3.90;;;;;;;21.53;66.55;100895.13;1717871;83;21462;-61
2023/08/18 01:23:09;;;;;;;6.95;4.17;;;;;;;21.50;66.66;100890.91;1718128;83;21069;-60
2023/08/18 01:25:38;;;;;;;8.78;4.17;;;;;;;21.47;66.73;100890.03;1718151;83;21017;-61
2023/08/18 01:28:07;;;;;;;7.42;4.62;;;;;;;21.44;66.90;100894.70;1717914;83;21115;-61
2023/08/18 01:30:41;;;;;;;11.15;4.87;;;;;;;21.43;67.01;100889.67;1717889;83;21029;-61
2023/08/18 01:33:25;;;;;;;18.15;5.05;;;;;;;21.39;67.19;100893.23;1717792;83;21058;-60
2023/08/18 01:35:59;;;;;;;10.00;4.83;;;;;;;21.33;67.36;100885.91;1713397;83;21043;-61
2023/08/18 01:38:29;;;;;;;11.78;5.00;;;;;;;21.25;67.65;100890.52;1718221;83;21054;-60
2023/08/18 01:40:58;;;;;;;8.60;4.70;;;;;;;21.19;67.99;100893.75;1717844;83;20999;-61
2023/08/18 01:43:27;;;;;;;7.78;4.53;;;;;;;21.18;68.15;100898.48;1718281;83;21414;-60
2023/08/18 01:45:58;;;;;;;6.83;4.30;;;;;;;21.17;68.18;100905.16;1718020;83;21007;-60
2023/08/18 01:48:27;;;;;;;6.55;4.10;;;;;;;21.14;68.31;100898.70;1718011;83;21038;-60
2023/08/18 01:50:56;;;;;;;6.53;4.10;;;;;;;21.09;68.47;100902.80;1722998;82;21094;-61
2023/08/18 01:53:27;;;;;;;7.40;4.00;;;;;;;21.10;68.63;100905.05;1724679;82;21063;-60
2023/08/18 01:56:02;;;;;;;6.75;4.05;;;;;;;21.10;68.72;100902.25;1753546;82;21007;-61
2023/08/18 01:58:33;;;;;;;8.73;4.20;;;;;;;21.12;68.78;100904.23;1753457;82;21504;-59
2023/08/18 02:01:02;;;;;;;7.75;4.25;;;;;;;21.12;68.81;100900.90;1753650;82;21407;-61
2023/08/18 02:03:31;;;;;;;5.53;3.70;;;;;;;21.10;68.91;100902.25;1753495;82;21078;-61
2023/08/18 02:06:00;;;;;;;4.85;3.47;;;;;;;21.10;68.91;100907.28;1753604;82;21034;-62
2023/08/18 02:08:30;;;;;;;8.33;3.83;;;;;;;21.12;68.85;100911.20;1748859;82;21062;-61
2023/08/18 02:11:04;;;;;;;5.58;3.77;;;;;;;21.11;68.84;100907.58;1753465;82;21066;-61
2023/08/18 02:13:33;;;;;;;7.22;4.12;;;;;;;21.07;68.92;100906.39;1724769;82;21451;-60
2023/08/18 02:16:03;;;;;;;7.28;3.72;;;;;;;21.04;69.08;100908.30;1753466;82;21055;-60
2023/08/18 02:18:33;;;;;;;7.03;3.90;;;;;;;21.04;69.18;100913.88;1724714;82;21459;-60
2023/08/18 02:21:06;;;;;;;10.05;4.00;;;;;;;21.03;69.29;100910.79;1753671;82;21054;-59
2023/08/18 02:23:33;;;;;;;8.50;4.03;;;;;;;21.02;69.38;100915.22;1753506;82;21023;-60
2023/08/18 02:26:05;;;;;;;6.92;4.00;;;;;;;20.99;69.47;100912.95;1753424;82;21740;-60
2023/08/18 02:28:34;;;;;;;8.08;4.00;;;;;;;20.95;69.58;100916.79;1753480;82;21134;-60
2023/08/18 02:31:05;;;;;;;8.20;4.00;;;;;;;20.91;69.71;100921.18;1753658;82;21458;-61
2023/08/18 02:33:34;;;;;;;6.65;3.95;;;;;;;20.91;69.85;100925.91;1753710;82;21019;-61
2023/08/18 02:36:04;;;;;;;6.28;3.90;;;;;;;20.88;69.95;100929.50;1753685;82;21110;-59
2023/08/18 02:38:35;;;;;;;7.10;4.08;;;;;;;20.87;70.06;100922.78;1748901;82;21520;-60
2023/08/18 02:41:05;;;;;;;4.72;4.00;;;;;;;20.81;70.15;100923.25;1753533;82;21471;-61
2023/08/18 02:43:35;;;;;;;7.00;4.37;;;;;;;20.77;70.36;100926.21;1753725;82;21466;-61
2023/08/18 02:46:05;;;;;;;11.97;5.05;;;;;;;20.75;70.62;100921.44;1753355;82;21210;-61
2023/08/18 02:48:35;;;;;;;6.17;4.42;;;;;;;20.73;70.74;100921.40;1753842;82;21039;-61
2023/08/18 02:51:07;;;;;;;6.95;4.53;;;;;;;20.71;70.91;100927.77;1746798;82;21473;-60
2023/08/18 02:53:39;;;;;;;5.65;4.10;;;;;;;20.68;70.96;100925.48;1743612;82;21031;-60
2023/08/18 02:56:08;;;;;;;11.18;4.72;;;;;;;20.66;71.17;100931.86;1745935;82;21078;-60
2023/08/18 02:58:39;;;;;;;8.68;4.35;;;;;;;20.66;71.30;100931.86;1746100;82;21039;-61
2023/08/18 03:01:08;;;;;;;8.45;4.25;;;;;;;20.63;71.39;100937.38;1746349;82;21023;-60
2023/08/18 03:03:37;;;;;;;11.63;4.85;;;;;;;20.63;71.59;100939.31;1746067;82;21067;-60
2023/08/18 03:06:08;;;;;;;7.10;4.67;;;;;;;20.61;71.71;100935.94;1746037;82;20987;-60
2023/08/18 03:08:38;;;;;;;9.23;5.20;;;;;;;20.59;71.87;100934.80;1743444;82;21059;-60
2023/08/18 03:11:08;;;;;;;9.38;4.42;;;;;;;20.60;72.04;100935.64;1745942;82;21066;-60
2023/08/18 03:13:37;;;;;;;7.83;4.70;;;;;;;20.57;72.10;100936.44;1745964;82;21043;-60
2023/08/18 03:16:07;;;;;;;7.53;5.10;;;;;;;20.56;72.21;100933.36;1743355;82;21059;-60
2023/08/18 03:18:36;;;;;;;11.43;4.90;;;;;;;20.57;72.32;100937.84;1746106;82;21047;-60
2023/08/18 03:21:07;;;;;;;8.78;4.47;;;;;;;20.62;72.38;100941.27;1745987;82;21042;-60
2023/08/18 03:23:36;;;;;;;9.18;4.92;;;;;;;20.69;72.35;100939.70;1745952;82;20992;-61
2023/08/18 03:26:07;;;;;;;9.63;5.08;;;;;;;20.73;72.29;100938.11;1745975;82;21078;-60
2023/08/18 03:28:38;;;;;;;9.68;5.47;;;;;;;20.73;72.31;100939.50;1745967;82;21035;-61
2023/08/18 03:31:10;;;;;;;11.45;5.00;;;;;;;20.73;72.37;100935.33;1746200;82;21063;-59
2023/08/18 03:33:39;;;;;;;6.62;4.80;;;;;;;20.73;72.42;100940.34;1745943;82;21051;-61
2023/08/18 03:36:10;;;;;;;11.03;5.08;;;;;;;20.76;72.43;100941.78;1746150;82;21480;-59
2023/08/18 03:38:40;;;;;;;9.13;4.92;;;;;;;20.79;72.41;100945.45;1746132;82;21086;-61
2023/08/18 03:41:09;;;;;;;8.18;5.15;;;;;;;20.82;72.42;100949.16;1746196;82;21027;-60
2023/08/18 03:43:38;;;;;;;9.78;5.28;;;;;;;20.84;72.49;100938.06;1745968;82;21031;-61
2023/08/18 03:46:22;;;;;;;11.43;5.42;;;;;;;20.87;72.51;100936.72;1745861;82;21133;-61
2023/08/18 03:48:53;;;;;;;11.70;5.83;;;;;;;20.92;72.57;100942.92;1746190;82;21007;-61
2023/08/18 03:51:22;;;;;;;10.15;5.90;;;;;;;20.95;72.57;100947.44;1745870;82;21011;-61
2023/08/18 03:53:51;;;;;;;11.60;6.17;;;;;;;20.99;72.44;100950.02;1746097;82;21380;-60
2023/08/18 03:56:21;;;;;;;12.80;6.20;;;;;;;21.04;72.33;100952.03;1743292;82;21110;-62
2023/08/18 03:58:50;;;;;;;17.30;6.90;;;;;;;21.09;72.31;100954.36;1745955;82;21412;-60
2023/08/18 04:01:19;;;;;;;17.75;8.00;;;;;;;21.15;72.29;100958.91;1746219;82;21031;-60
2023/08/18 04:03:49;;;;;;;13.90;7.30;;;;;;;21.22;72.22;100954.56;1746129;82;21038;-61
2023/08/18 04:06:18;;;;;;;13.20;7.25;;;;;;;21.28;72.18;100961.09;1746323;82;21084;-60
2023/08/18 04:08:47;;;;;;;16.65;7.22;;;;;;;21.33;72.18;100964.80;1746269;82;21521;-60
2023/08/18 04:11:15;;;;;;;14.28;8.75;;;;;;;21.37;72.16;100963.73;1746007;82;21455;-61
2023/08/18 04:13:48;;;;;;;17.80;8.00;;;;;;;21.43;72.07;100963.56;1746329;82;20999;-60
2023/08/18 04:16:17;;;;;;;20.12;8.35;;;;;;;21.51;71.89;100965.10;1746072;82;21533;-61
2023/08/18 04:18:46;;;;;;;15.38;9.35;;;;;;;21.57;71.71;100965.47;1746211;82;21054;-61
2023/08/18 04:21:14;;;;;;;21.50;8.73;;;;;;;21.65;71.59;100966.42;1746065;82;21023;-60
2023/08/18 04:23:44;;;;;;;17.25;8.25;;;;;;;21.71;71.28;100964.00;1746289;82;21042;-60
2023/08/18 04:26:14;;;;;;;15.35;7.95;;;;;;;21.79;71.04;100960.77;1746231;82;21791;-59
2023/08/18 04:28:43;;;;;;;15.80;7.45;;;;;;;21.86;70.72;100959.73;1746151;82;21023;-59
2023/08/18 04:31:13;;;;;;;12.70;7.47;;;;;;;21.92;70.53;100962.33;1719520;82;21054;-60
2023/08/18 04:33:44;;;;;;;12.85;6.50;;;;;;;21.99;70.31;100959.34;1746211;82;21524;-62
2023/08/18 04:36:13;;;;;;;12.10;7.55;;;;;;;22.06;69.87;100965.60;1746183;82;21023;-61
2023/08/18 04:38:42;;;;;;;16.57;6.83;;;;;;;22.13;69.47;100962.09;1746063;82;21043;-61
2023/08/18 04:41:14;;;;;;;16.67;7.37;;;;;;;22.20;68.89;100956.31;1746207;82;21427;-61
2023/08/18 04:43:43;;;;;;;10.15;7.05;;;;;;;22.27;68.19;100961.14;1746390;82;21055;-61
2023/08/18 04:46:12;;;;;;;12.53;6.50;;;;;;;22.33;68.05;100958.14;1746068;82;21031;-61
2023/08/18 04:48:42;;;;;;;9.70;6.58;;;;;;;22.39;67.80;100958.48;1746119;82;21062;-61
2023/08/18 04:51:11;;;;;;;10.38;6.47;;;;;;;22.48;67.13;100953.27;1747172;82;21043;-61
2023/08/18 04:53:40;;;;;;;10.65;5.78;;;;;;;22.56;66.65;100950.00;1747788;82;21054;-61
2023/08/18 04:56:12;;;;;;;12.55;6.03;;;;;;;22.64;66.14;100954.27;1747981;82;21242;-61
2023/08/18 04:58:41;;;;;;;12.58;6.35;;;;;;;22.71;65.71;100952.11;1747781;82;21505;-63
2023/08/18 05:01:10;;;;;;;12.73;6.08;;;;;;;22.78;65.36;100953.61;1747869;82;21026;-61
2023/08/18 05:03:40;;;;;;;14.70;5.67;;;;;;;22.84;64.96;100949.49;1730413;82;21100;-61
2023/08/18 05:06:12;;;;;;;10.30;5.45;;;;;;;22.91;64.35;100953.75;1747899;82;21007;-60
2023/08/18 05:08:41;;;;;;;8.95;6.03;;;;;;;22.97;63.51;100956.88;1748056;82;21042;-61
2023/08/18 05:11:11;;;;;;;16.05;7.58;;;;;;;23.05;63.16;100956.39;1748038;82;21019;-60
2023/08/18 05:13:42;;;;;;;15.60;7.72;;;;;;;23.15;62.97;100954.78;1747930;82;21576;-61
2023/08/18 05:16:13;;;;;;;17.37;7.22;;;;;;;23.21;62.22;100953.72;1747945;82;21074;-60
2023/08/18 05:18:42;;;;;;;14.28;7.10;;;;;;;23.28;61.88;100954.33;1747927;82;21011;-59
2023/08/18 05:21:12;;;;;;;17.17;7.70;;;;;;;23.35;61.54;100953.53;1747824;82;21059;-61
2023/08/18 05:23:41;;;;;;;19.67;7.35;;;;;;;23.44;61.19;100954.75;1748057;82;21035;-60
2023/08/18 05:26:10;;;;;;;19.17;9.40;;;;;;;23.50;61.06;100957.87;1747813;82;21079;-61
2023/08/18 05:28:40;;;;;;;14.03;7.33;;;;;;;23.53;60.61;100955.92;1747951;82;21055;-60
2023/08/18 05:31:10;;;;;;;11.83;6.95;;;;;;;23.56;60.34;100954.58;1747835;82;21027;-61
2023/08/18 05:33:40;;;;;;;16.65;7.50;;;;;;;23.60;60.15;100954.32;1729297;82;21129;-61
2023/08/18 05:36:12;;;;;;;12.95;6.15;;;;;;;23.64;60.12;100958.27;1747806;82;21526;-61
2023/08/18 05:38:41;;;;;;;14.13;7.22;;;;;;;23.70;59.94;100958.58;1747791;82;21669;-60
2023/08/18 05:41:13;;;;;;;16.00;6.90;;;;;;;23.74;59.83;100958.87;1747978;82;21035;-61
2023/08/18 05:43:44;;;;;;;13.65;6.90;;;;;;;23.79;59.59;100954.70;1747936;82;21090;-60
2023/08/18 05:46:15;;;;;;;14.20;6.35;;;;;;;23.84;59.49;100964.52;1747904;82;21011;-60
2023/08/18 05:48:44;;;;;;;14.35;7.12;;;;;;;23.88;59.16;100956.71;1747907;82;21042;-61
2023/08/18 05:51:15;;;;;;;17.23;6.90;;;;;;;23.91;58.86;100950.56;1695590;83;21443;-59
2023/08/18 05:53:45;;;;;;;17.60;6.40;;;;;;;23.94;58.70;100954.22;1720969;82;21050;-60
2023/08/18 05:56:14;;;;;;;10.98;5.67;;;;;;;23.97;58.38;100959.83;1721066;83;21058;-61
2023/08/18 05:58:44;;;;;;;13.70;7.00;;;;;;;23.99;58.29;100959.00;1721006;83;21066;-61
2023/08/18 06:01:14;;;;;;;15.00;8.18;;;;;;;24.01;57.92;100953.97;1720961;83;21071;-61
2023/08/18 06:03:44;;;;;;;20.30;8.38;;;;;;;24.03;57.87;100954.53;1700796;83;21023;-61
2023/08/18 06:06:13;;;;;;;11.35;6.40;;;;;;;24.05;57.74;100957.91;1720946;83;21046;-61
2023/08/18 06:08:42;;;;;;;12.13;6.60;;;;;;;24.08;57.47;100958.78;1721097;82;21071;-60
2023/08/18 06:11:12;;;;;;;13.00;6.00;;;;;;;24.09;57.50;100961.88;1721232;83;21071;-61
2023/08/18 06:13:41;;;;;;;12.05;5.75;;;;;;;24.12;57.32;100956.28;1720930;83;21078;-60
2023/08/18 06:16:11;;;;;;;10.80;5.35;;;;;;;24.16;57.13;100960.22;1721201;83;21074;-60
2023/08/18 06:18:41;;;;;;;10.45;6.22;;;;;;;24.20;57.01;100966.39;1720894;83;21059;-61
2023/08/18 06:21:11;;;;;;;12.03;5.75;;;;;;;24.28;56.76;100963.09;1721403;83;21015;-65
2023/08/18 06:23:40;;;;;;;12.80;6.03;;;;;;;24.37;56.66;100962.00;1721067;83;21003;-61
2023/08/18 06:26:13;;;;;;;11.18;5.37;;;;;;;24.50;56.20;100969.03;1721106;83;21082;-61
2023/08/18 06:28:43;;;;;;;15.90;5.45;;;;;;;24.60;56.01;100964.30;1720705;83;21544;-61
2023/08/18 06:31:12;;;;;;;7.97;5.10;;;;;;;24.74;55.57;100960.98;1720992;83;21726;-59
2023/08/18 06:33:40;;;;;;;9.00;5.28;;;;;;;24.86;54.66;100968.00;1721156;83;21051;-61
2023/08/18 06:36:10;;;;;;;8.23;4.92;;;;;;;25.01;54.24;100967.77;1721250;83;21034;-59
2023/08/18 06:38:39;;;;;;;10.80;4.80;;;;;;;25.13;54.09;100965.52;1721167;82;21023;-62
2023/08/18 06:41:10;;;;;;;8.03;4.22;;;;;;;25.26;53.86;100970.00;1721079;83;21034;-60
2023/08/18 06:43:40;;;;;;;6.60;4.42;;;;;;;25.44;53.57;100965.80;1720974;83;21466;-61
2023/08/18 06:46:09;;;;;;;5.87;4.00;;;;;;;25.66;53.03;100961.86;1720920;82;21011;-60
2023/08/18 06:48:38;;;;;;;8.03;4.55;;;;;;;25.93;52.22;100969.36;1721218;83;21090;-62
2023/08/18 06:51:08;;;;;;;7.33;4.50;;;;;;;26.17;51.87;100966.77;1729750;82;21023;-60
2023/08/18 06:53:38;;;;;;;9.23;4.97;;;;;;;26.44;51.27;100964.97;1742880;82;21476;-61
2023/08/18 06:56:10;;;;;;;8.68;4.30;;;;;;;26.64;50.88;100966.81;1743052;82;21007;-61
2023/08/18 06:58:40;;;;;;;7.87;4.53;;;;;;;26.78;50.28;100968.71;1742730;82;21620;-60
2023/08/18 07:01:09;;;;;;;6.15;4.22;;;;;;;26.91;50.00;100962.98;1742968;82;21035;-60
2023/08/18 07:03:39;;;;;;;9.20;4.42;;;;;;;27.13;49.68;100969.59;1743027;82;20991;-62
2023/08/18 07:06:09;;;;;;;7.67;4.12;;;;;;;27.39;49.13;100969.67;1742782;82;21023;-61
2023/08/18 07:08:38;;;;;;;8.60;4.80;;;;;;;27.57;48.56;100964.42;1720378;82;21509;-60
2023/08/18 07:11:07;;;;;;;11.20;4.87;;;;;;;27.83;48.10;100968.67;1742991;82;21529;-61
2023/08/18 07:13:36;;;;;;;7.45;4.60;;;;;;;27.83;48.10;100968.67;1742986;82;21050;-61
2023/08/18 07:16:05;;;;;;;8.18;4.67;;;;;;;28.03;47.96;100969.87;1743244;82;20991;-60
2023/08/18 07:18:34;;;;;;;6.75;4.40;;;;;;;28.38;47.27;100974.80;1742966;82;21071;-60
2023/08/18 07:21:03;;;;;;;7.15;4.42;;;;;;;28.62;46.58;100968.56;1742975;82;20999;-61
2023/08/18 07:23:32;;;;;;;7.70;4.80;;;;;;;28.77;46.08;100979.34;1743179;82;21031;-60
2023/08/18 07:26:03;;;;;;;6.72;4.08;;;;;;;28.85;45.88;100978.11;1742842;82;21069;-61
2023/08/18 07:28:32;;;;;;;9.60;4.62;;;;;;;28.93;45.29;100973.77;1744710;82;21083;-62
2023/08/18 07:31:04;;;;;;;8.03;4.30;;;;;;;28.93;45.17;100977.42;1742907;82;21439;-61
2023/08/18 07:33:35;;;;;;;6.47;4.00;;;;;;;29.02;44.91;100975.58;1743093;82;21071;-62
2023/08/18 07:36:05;;;;;;;8.08;4.42;;;;;;;29.09;44.90;100970.11;1742790;82;21529;-61
2023/08/18 07:38:35;;;;;;;6.75;3.95;;;;;;;29.20;44.16;100975.28;1742839;82;21011;-61
2023/08/18 07:41:06;;;;;;;5.92;4.58;;;;;;;29.27;43.94;100977.73;1743066;82;21003;-61
2023/08/18 07:43:35;;;;;;;8.98;4.12;;;;;;;29.39;43.38;100965.95;1743047;82;21470;-60
2023/08/18 07:46:06;;;;;;;9.88;4.25;;;;;;;29.59;43.41;100973.50;1743203;82;21011;-60
2023/08/18 07:48:37;;;;;;;8.10;3.70;;;;;;;29.86;42.34;100970.45;1742880;82;21579;-61
2023/08/18 07:51:06;;;;;;;7.10;3.47;;;;;;;29.98;41.64;100973.63;1745154;82;21034;-62
2023/08/18 07:53:35;;;;;;;5.85;3.83;;;;;;;29.96;41.33;100975.34;1750230;80;21019;-62
2023/08/18 07:56:04;;;;;;;8.18;4.00;;;;;;;29.94;41.52;100974.83;1740675;80;21016;-62
2023/08/18 07:58:33;;;;;;;7.55;3.87;;;;;;;29.99;41.43;100978.12;1749512;80;21074;-61
2023/08/18 08:01:05;;;;;;;6.78;4.03;;;;;;;30.12;40.72;100979.30;1751273;82;21193;-59
2023/08/18 08:03:36;;;;;;;7.05;4.05;;;;;;;30.12;41.00;100975.06;1751264;82;21043;-61
2023/08/18 08:06:05;;;;;;;5.85;3.80;;;;;;;30.11;41.27;100975.64;1751135;82;21044;-61
2023/08/18 08:08:34;;;;;;;5.10;3.70;;;;;;;30.21;41.45;100970.34;1722172;82;21008;-61
2023/08/18 08:11:03;;;;;;;7.08;4.28;;;;;;;30.37;41.26;100970.27;1751146;82;21051;-62
2023/08/18 08:13:32;;;;;;;5.58;3.50;;;;;;;30.54;41.04;100969.03;1751162;82;21062;-63
2023/08/18 08:16:02;;;;;;;6.65;3.70;;;;;;;30.71;40.70;100966.17;1751367;82;21030;-61
2023/08/18 08:18:33;;;;;;;5.58;3.47;;;;;;;30.92;40.40;100967.34;1751371;82;21015;-61
2023/08/18 08:21:02;;;;;;;5.70;3.35;;;;;;;31.23;39.91;100959.56;1750942;82;21074;-60
2023/08/18 08:23:31;;;;;;;13.83;4.03;;;;;;;31.40;38.92;100962.50;1751286;82;21078;-59
2023/08/18 08:26:02;;;;;;;6.90;3.70;;;;;;;31.45;38.91;100960.95;1747676;82;21035;-61
2023/08/18 08:28:32;;;;;;;4.53;3.22;;;;;;;31.57;38.51;100956.93;1738742;82;21103;-61
2023/08/18 08:31:01;;;;;;;6.42;3.30;;;;;;;31.52;38.47;100955.08;1751169;82;20996;-61
2023/08/18 08:33:33;;;;;;;6.65;3.90;;;;;;;31.51;38.49;100954.82;1750908;82;21076;-62
2023/08/18 08:36:08;;;;;;;7.58;3.83;;;;;;;31.52;38.46;100959.91;1751320;82;21016;-60
2023/08/18 08:38:43;;;;;;;7.83;4.42;;;;;;;31.48;38.33;100950.38;1750757;80;22076;-62
2023/08/18 08:41:14;;;;;;;6.75;3.58;;;;;;;31.32;38.54;100950.53;1751502;80;21078;-61
2023/08/18 08:43:43;;;;;;;9.50;3.80;;;;;;;31.16;38.90;100950.91;1722354;82;21507;-61
2023/08/18 08:46:14;;;;;;;4.05;2.72;;;;;;;31.25;38.80;100951.58;1751110;81;21433;-61
2023/08/18 08:48:46;;;;;;;4.72;3.10;;;;;;;31.42;36.64;100950.27;1716849;82;21464;-61
2023/08/18 08:51:16;;;;;;;5.58;3.02;;;;;;;31.54;35.63;100951.34;1751130;82;21115;-62
2023/08/18 08:53:50;;;;;;;4.92;2.65;;;;;;;31.71;34.87;100956.28;1750798;80;21104;-62
2023/08/18 08:56:20;;;;;;;4.25;2.72;;;;;;;31.63;35.86;100955.63;1750722;82;21087;-62
2023/08/18 08:58:49;;;;;;;6.40;2.65;;;;;;;31.62;35.91;100951.13;1750670;82;21092;-61
2023/08/18 09:01:20;;;;;;;5.58;2.87;;;;;;;31.68;34.92;100946.98;1750256;82;21041;-63
2023/08/18 09:03:50;;;;;;;7.42;2.90;;;;;;;31.68;34.66;100946.16;1746895;82;21872;-60
2023/08/18 09:06:20;;;;;;;4.37;2.45;;;;;;;31.73;34.49;100938.37;1747035;82;20997;-61
2023/08/18 09:08:49;;;;;;;6.37;2.90;;;;;;;31.88;33.82;100950.47;1746817;82;21505;-62
2023/08/18 09:11:18;;;;;;;3.72;2.62;;;;;;;31.90;33.00;100945.30;1716227;82;21056;-61
2023/08/18 09:13:49;;;;;;;3.72;2.62;;;;;;;31.66;33.56;100942.22;1746346;82;21464;-62
2023/08/18 09:16:19;;;;;;;6.10;2.72;;;;;;;31.40;34.26;100942.09;1746805;82;21064;-61
2023/08/18 09:18:51;;;;;;;5.33;2.70;;;;;;;31.30;34.41;100942.37;1746209;82;21088;-62
2023/08/18 09:21:23;;;;;;;5.95;2.60;;;;;;;31.18;34.60;100950.00;1677227;83;21095;-63
2023/08/18 09:23:57;;;;;;;4.67;2.52;;;;;;;31.07;33.98;100942.06;1718354;82;21540;-62
2023/08/18 09:26:28;;;;;;;4.70;2.65;;;;;;;30.88;34.21;100933.77;1748003;82;21032;-62
2023/08/18 09:28:57;;;;;;;5.75;2.65;;;;;;;30.67;34.38;100934.01;1749128;82;21579;-62
2023/08/18 09:31:27;;;;;;;5.50;2.80;;;;;;;30.44;34.87;100942.39;1749058;82;21020;-62
2023/08/18 09:33:55;;;;;;;4.58;2.90;;;;;;;30.35;35.41;100940.63;1748899;82;21495;-62
2023/08/18 09:36:26;;;;;;;7.28;2.87;;;;;;;30.34;35.72;100936.97;1748987;82;21288;-58
2023/08/18 09:38:55;;;;;;;7.37;3.22;;;;;;;30.36;35.94;100933.83;1748919;82;21182;-63
2023/08/18 09:41:24;;;;;;;7.65;3.30;;;;;;;30.42;36.15;100930.56;1749252;82;21069;-62
2023/08/18 09:43:53;;;;;;;6.17;2.98;;;;;;;30.47;35.79;100929.61;1718317;82;21059;-62
2023/08/18 09:46:22;;;;;;;4.55;2.83;;;;;;;30.48;35.88;100932.70;1748908;82;21070;-63
2023/08/18 09:48:51;;;;;;;5.37;3.10;;;;;;;30.38;35.39;100944.23;1748903;82;21596;-63
2023/08/18 09:51:22;;;;;;;4.53;3.08;;;;;;;30.18;35.62;100925.16;1748944;82;21064;-62
2023/08/18 09:53:58;;;;;;;11.93;4.10;;;;;;;30.04;36.07;100928.59;1749584;81;21063;-61
2023/08/18 09:56:30;;;;;;;8.15;3.65;;;;;;;30.05;36.34;100933.66;1749738;82;21129;-62
2023/08/18 09:59:11;;;;;;;4.37;3.30;;;;;;;30.12;36.42;100931.25;1720620;82;21039;-62
2023/08/18 10:01:40;;;;;;;7.62;3.70;;;;;;;30.22;36.19;100926.78;1747760;82;21486;-61
2023/08/18 10:04:10;;;;;;;8.03;4.20;;;;;;;30.30;35.93;100921.80;1693474;83;21094;-61
2023/08/18 10:06:39;;;;;;;4.47;2.83;;;;;;;30.35;35.85;100930.73;1716757;82;21067;-62
2023/08/18 10:09:09;;;;;;;5.37;3.00;;;;;;;30.39;35.70;100932.61;1721455;83;21054;-62
2023/08/18 10:11:39;;;;;;;5.80;2.72;;;;;;;30.41;35.85;100929.47;1721273;83;21087;-61
2023/08/18 10:14:09;;;;;;;5.55;2.80;;;;;;;30.41;36.12;100934.55;1721349;82;21552;-62
2023/08/18 10:16:39;;;;;;;7.78;3.17;;;;;;;30.40;35.91;100927.80;1721404;83;21042;-62
2023/08/18 10:19:10;;;;;;;7.60;3.40;;;;;;;30.42;36.05;100926.90;1721298;83;21007;-61
2023/08/18 10:21:39;;;;;;;5.40;2.87;;;;;;;30.38;36.16;100926.70;1721462;83;21518;-62
2023/08/18 10:24:08;;;;;;;5.87;3.10;;;;;;;30.34;36.18;100935.55;1721387;83;21035;-61
2023/08/18 10:26:39;;;;;;;6.03;2.90;;;;;;;30.24;36.48;100932.37;1693377;83;21042;-62
2023/08/18 10:29:16;;;;;;;6.95;3.20;;;;;;;30.19;36.37;100931.08;1716939;83;21046;-62
2023/08/18 10:31:48;;;;;;;3.87;2.40;;;;;;;30.11;36.47;100925.33;1718021;83;21018;-64
2023/08/18 10:34:21;;;;;;;6.42;2.90;;;;;;;30.09;36.61;100917.75;1721135;82;21082;-63
2023/08/18 10:36:58;;;;;;;4.58;3.05;;;;;;;30.13;36.43;100913.13;1721528;83;21090;-63
2023/08/18 10:39:32;;;;;;;4.92;2.77;;;;;;;30.13;36.29;100924.44;1721219;83;21463;-62
2023/08/18 10:42:13;;;;;;;5.47;2.70;;;;;;;30.08;36.34;100923.14;1693905;83;21007;-64
2023/08/18 10:45:04;;;;;;;5.70;2.85;;;;;;;30.04;36.35;100917.86;1721275;83;21031;-64
2023/08/18 10:47:35;;;;;;;5.58;2.70;;;;;;;29.87;36.22;100919.84;1693574;83;21066;-62
2023/08/18 10:50:06;;;;;;;3.62;2.40;;;;;;;29.77;36.63;100922.30;1721231;83;21498;-63
2023/08/18 10:52:35;;;;;;;5.28;2.50;;;;;;;29.77;36.55;100912.99;1717280;82;21086;-61
2023/08/18 10:55:07;;;;;;;6.12;3.30;;;;;;;29.78;36.34;100908.44;1712917;84;21165;-61
2023/08/18 10:57:39;;;;;;;6.87;2.98;;;;;;;29.73;36.45;100907.13;1713223;84;21114;-62
2023/08/18 11:00:15;;;;;;;6.37;3.20;;;;;;;29.74;36.67;100906.56;1713236;84;21454;-62
2023/08/18 11:02:46;;;;;;;7.45;3.15;;;;;;;29.73;36.80;100913.36;1729230;82;21437;-62
2023/08/18 11:05:22;;;;;;;6.75;3.20;;;;;;;29.68;36.63;100909.23;1736654;82;21026;-61
2023/08/18 11:07:53;;;;;;;6.65;4.40;;;;;;;29.57;37.03;100905.19;1736617;82;21084;-62
2023/08/18 11:10:23;;;;;;;6.35;2.87;;;;;;;29.50;36.96;100909.58;1746981;82;21092;-62
2023/08/18 11:12:54;;;;;;;4.15;2.72;;;;;;;29.40;37.38;100897.87;1736715;82;21080;-63
2023/08/18 11:15:24;;;;;;;4.53;2.62;;;;;;;29.40;36.92;100903.52;1747018;82;21033;-62
2023/08/18 11:17:54;;;;;;;6.33;2.98;;;;;;;29.42;36.87;100906.88;1736515;82;21072;-63
2023/08/18 11:20:23;;;;;;;7.22;2.85;;;;;;;29.40;37.04;100902.69;1736490;82;21045;-63
2023/08/18 11:22:53;;;;;;;4.00;2.50;;;;;;;29.41;37.05;100902.95;1736497;82;21437;-63
2023/08/18 11:25:24;;;;;;;4.92;2.70;;;;;;;29.38;37.13;100907.81;1736538;82;21107;-62
2023/08/18 11:27:55;;;;;;;3.77;2.87;;;;;;;29.31;36.90;100902.00;1746898;82;21480;-62
2023/08/18 11:30:25;;;;;;;4.87;2.70;;;;;;;29.18;37.02;100894.30;1736740;82;21449;-62
2023/08/18 11:32:54;;;;;;;5.58;2.67;;;;;;;29.14;37.03;100898.89;1736405;82;21068;-64
2023/08/18 11:35:25;;;;;;;4.53;2.72;;;;;;;29.03;37.11;100891.76;1736666;82;21025;-62